Time;durP1;ratioP1;P1;durP2;ratioP2;P2;SDS_P1;SDS_P2;PMS_P1;PMS_P2;Temp;Humidity;BMP_temperature;BMP_pressure;BME280_temperature;BME280_humidity;BME280_pressure;Samples;Min_cycle;Max_cycle;Signal;HPM_P1;HPM_P2
2022/03/06 00:01:45;;;;;;;7.68;4.18;;;;;;;2.80;45.75;99640.88;4454597;32;34017;-71
2022/03/06 00:04:14;;;;;;;9.02;4.07;;;;;;;3.13;44.75;99633.09;4454963;32;35010;-71
2022/03/06 00:06:43;;;;;;;8.35;4.60;;;;;;;3.26;44.68;99631.69;4464889;32;34413;-71
2022/03/06 00:09:11;;;;;;;6.87;3.70;;;;;;;2.83;45.25;99634.09;4461460;32;33772;-71
2022/03/06 00:11:40;;;;;;;7.45;3.62;;;;;;;2.91;45.21;99638.56;4464403;32;34861;-71
2022/03/06 00:14:09;;;;;;;6.93;3.75;;;;;;;3.16;44.53;99643.47;4470628;32;35144;-71
2022/03/06 00:16:37;;;;;;;8.50;4.12;;;;;;;3.10;44.82;99645.88;4469323;32;35022;-71
2022/03/06 00:19:06;;;;;;;6.55;3.40;;;;;;;2.22;47.04;99645.34;4470693;32;33684;-71
2022/03/06 00:21:34;;;;;;;8.88;3.62;;;;;;;2.65;46.49;99651.63;4460452;32;33807;-71
2022/03/06 00:24:03;;;;;;;7.62;3.58;;;;;;;2.30;46.89;99654.12;4454269;32;35187;-71
2022/03/06 00:26:33;;;;;;;6.90;3.30;;;;;;;1.95;47.61;99663.41;4448924;32;34553;-71
2022/03/06 00:29:03;;;;;;;9.90;4.20;;;;;;;1.60;48.49;99658.09;4456633;32;34560;-71
2022/03/06 00:31:31;;;;;;;10.00;3.95;;;;;;;1.38;49.99;99648.84;4446736;32;34709;-71
2022/03/06 00:34:00;;;;;;;7.85;3.78;;;;;;;2.30;47.29;99653.28;4464409;32;34958;-71
2022/03/06 00:36:29;;;;;;;13.62;4.95;;;;;;;2.53;46.83;99647.03;4461667;32;34344;-71
2022/03/06 00:38:57;;;;;;;9.40;4.00;;;;;;;1.88;47.79;99654.66;4454354;32;33821;-71
2022/03/06 00:41:27;;;;;;;7.57;4.30;;;;;;;1.72;48.33;99647.34;4461402;32;33969;-71
2022/03/06 00:43:55;;;;;;;8.65;3.72;;;;;;;1.92;48.43;99653.03;4470452;32;35858;-71
2022/03/06 00:46:23;;;;;;;7.03;3.75;;;;;;;2.44;47.26;99654.50;4462758;32;34537;-71
2022/03/06 00:48:52;;;;;;;8.20;4.32;;;;;;;1.32;50.31;99650.44;4454765;32;34441;-71
2022/03/06 00:51:20;;;;;;;7.82;4.30;;;;;;;1.92;48.54;99646.19;4454251;32;34032;-70
2022/03/06 00:53:49;;;;;;;8.75;4.43;;;;;;;1.52;49.56;99645.91;4454343;32;35060;-71
2022/03/06 00:56:18;;;;;;;7.00;3.70;;;;;;;1.49;49.67;99645.81;4454141;32;35379;-71
2022/03/06 00:58:47;;;;;;;7.30;4.00;;;;;;;1.18;50.94;99648.25;4454871;32;33691;-70
2022/03/06 01:01:16;;;;;;;7.65;4.12;;;;;;;1.78;49.22;99650.06;4459676;32;34335;-70
2022/03/06 01:03:45;;;;;;;8.10;4.43;;;;;;;1.27;50.66;99644.28;4469904;32;35131;-71
2022/03/06 01:06:13;;;;;;;9.57;4.00;;;;;;;0.90;52.10;99650.78;4463870;32;35024;-70
2022/03/06 01:08:43;;;;;;;6.75;3.62;;;;;;;1.11;51.27;99648.06;4454648;32;33995;-70
2022/03/06 01:11:12;;;;;;;8.85;4.53;;;;;;;1.91;49.44;99644.47;4458820;32;33957;-70
2022/03/06 01:13:40;;;;;;;9.50;3.67;;;;;;;1.84;49.04;99642.56;4470203;32;34804;-71
2022/03/06 01:16:09;;;;;;;7.40;3.42;;;;;;;1.79;48.81;99639.00;4450734;32;35259;-70
2022/03/06 01:18:38;;;;;;;5.97;3.80;;;;;;;1.61;49.67;99639.31;4453965;32;35621;-71
2022/03/06 01:21:07;;;;;;;8.63;4.12;;;;;;;1.10;51.11;99636.03;4454038;32;33962;-71
2022/03/06 01:23:35;;;;;;;9.95;4.43;;;;;;;1.46;50.37;99629.44;4454476;32;34948;-71
2022/03/06 01:26:05;;;;;;;7.20;3.78;;;;;;;1.06;51.05;99633.31;4453960;32;35231;-70
2022/03/06 01:28:34;;;;;;;7.90;3.55;;;;;;;0.80;51.64;99629.94;4453852;32;34382;-70
2022/03/06 01:31:03;;;;;;;10.07;4.70;;;;;;;0.56;51.95;99634.28;4456777;32;34757;-71
2022/03/06 01:33:32;;;;;;;10.70;5.07;;;;;;;0.31;52.40;99627.44;4454312;32;35129;-71
2022/03/06 01:36:01;;;;;;;13.45;5.05;;;;;;;0.72;50.69;99622.88;4427212;32;33755;-70
2022/03/06 01:38:30;;;;;;;7.93;4.12;;;;;;;1.03;50.51;99613.59;4454559;32;34582;-70
2022/03/06 01:41:00;;;;;;;10.73;5.25;;;;;;;1.07;50.05;99606.88;4440391;32;33804;-70
2022/03/06 01:43:28;;;;;;;6.90;3.28;;;;;;;0.51;51.68;99607.63;4440507;32;35960;-71
2022/03/06 01:45:57;;;;;;;6.85;3.55;;;;;;;0.60;51.22;99601.97;4452904;32;34537;-71
2022/03/06 01:48:26;;;;;;;9.43;4.68;;;;;;;0.93;50.55;99604.72;4454262;32;33646;-70
2022/03/06 01:50:55;;;;;;;10.25;5.18;;;;;;;0.31;51.14;99609.50;4456144;32;34665;-71
2022/03/06 01:53:23;;;;;;;8.15;3.90;;;;;;;-0.02;52.11;99601.50;4449456;32;34543;-70
2022/03/06 01:55:52;;;;;;;8.88;4.90;;;;;;;0.98;49.67;99598.88;4455414;32;34385;-71
2022/03/06 01:58:20;;;;;;;9.65;4.62;;;;;;;0.62;49.41;99599.41;4462567;32;34470;-70
2022/03/06 02:00:50;;;;;;;7.28;3.87;;;;;;;0.87;49.69;99598.56;4453685;32;33961;-70
2022/03/06 02:03:21;;;;;;;7.10;3.83;;;;;;;0.23;51.27;99594.69;4454116;32;35102;-70
2022/03/06 02:05:50;;;;;;;9.13;3.70;;;;;;;-0.15;51.71;99591.66;4426984;32;34540;-70
2022/03/06 02:08:18;;;;;;;10.02;4.62;;;;;;;-0.21;52.11;99597.44;4439946;32;33852;-70
2022/03/06 02:10:49;;;;;;;10.15;4.97;;;;;;;-0.23;52.11;99589.69;4454343;32;34706;-70
2022/03/06 02:13:18;;;;;;;9.75;4.37;;;;;;;-0.15;51.55;99591.66;4450401;32;34978;-70
2022/03/06 02:15:48;;;;;;;9.90;4.53;;;;;;;0.28;50.38;99590.59;4439395;32;34624;-70
2022/03/06 02:18:19;;;;;;;11.63;4.50;;;;;;;-0.18;51.39;99594.09;4440265;32;33681;-70
2022/03/06 02:20:49;;;;;;;5.78;3.58;;;;;;;0.50;50.32;99589.66;4453397;32;34051;-70
2022/03/06 02:23:18;;;;;;;7.35;4.12;;;;;;;0.30;50.00;99587.28;4455021;32;35790;-71
2022/03/06 02:25:47;;;;;;;6.97;3.78;;;;;;;0.16;50.51;99586.81;4455532;32;34484;-70
2022/03/06 02:28:16;;;;;;;7.53;3.75;;;;;;;0.29;50.16;99587.22;4466367;32;33738;-70
2022/03/06 02:30:46;;;;;;;8.40;3.30;;;;;;;0.52;49.55;99588.87;4441639;32;34708;-70
2022/03/06 02:33:15;;;;;;;7.62;3.58;;;;;;;0.22;50.41;99588.69;4458306;32;35105;-71
2022/03/06 02:35:44;;;;;;;7.03;3.45;;;;;;;-0.97;53.24;99593.69;4455090;32;34958;-70
2022/03/06 02:38:13;;;;;;;4.43;2.95;;;;;;;-0.09;51.43;99591.88;4455759;32;34366;-70
2022/03/06 02:40:44;;;;;;;8.63;3.55;;;;;;;-0.79;52.98;99591.00;4454854;32;34020;-70
2022/03/06 02:43:15;;;;;;;5.28;2.87;;;;;;;-0.84;53.31;99597.63;4455631;32;35528;-70
2022/03/06 02:45:43;;;;;;;7.47;3.17;;;;;;;-0.34;51.93;99585.84;4455354;32;34504;-70
2022/03/06 02:48:11;;;;;;;6.32;3.20;;;;;;;-0.42;51.83;99587.28;4470602;32;33682;-70
2022/03/06 02:50:43;;;;;;;5.97;3.28;;;;;;;-0.36;51.61;99586.62;4471077;32;33971;-70
2022/03/06 02:53:13;;;;;;;5.28;3.53;;;;;;;-1.06;54.05;99585.66;4455474;32;34528;-70
2022/03/06 02:55:42;;;;;;;9.77;3.58;;;;;;;-1.44;55.93;99587.56;4454759;32;34821;-70
2022/03/06 02:58:12;;;;;;;6.20;3.05;;;;;;;-1.00;55.26;99583.38;4441843;32;32365;-70
2022/03/06 03:00:41;;;;;;;9.77;3.47;;;;;;;-0.81;53.98;99587.50;4455634;32;34593;-70
2022/03/06 03:03:10;;;;;;;8.85;4.50;;;;;;;-0.65;53.04;99588.97;4469461;32;35982;-70
2022/03/06 03:05:39;;;;;;;9.48;4.53;;;;;;;-0.90;54.03;99590.59;4471083;32;34397;-70
2022/03/06 03:08:07;;;;;;;10.95;3.28;;;;;;;-1.39;55.76;99580.97;4469950;32;34396;-70
2022/03/06 03:10:35;;;;;;;6.30;3.58;;;;;;;-1.21;54.95;99581.69;4455260;32;34288;-70
2022/03/06 03:13:04;;;;;;;7.35;3.47;;;;;;;-1.75;57.90;99587.16;4468386;32;35331;-70
2022/03/06 03:15:32;;;;;;;7.62;4.07;;;;;;;-0.52;53.44;99583.50;4457114;32;33924;-70
2022/03/06 03:18:00;;;;;;;10.75;3.90;;;;;;;-0.82;54.68;99590.88;4469796;32;33719;-70
2022/03/06 03:20:29;;;;;;;5.95;3.67;;;;;;;-1.07;54.40;99584.78;4470997;32;33907;-70
2022/03/06 03:22:58;;;;;;;5.20;3.30;;;;;;;-1.20;55.93;99582.56;4457272;32;35113;-70
2022/03/06 03:25:26;;;;;;;6.37;2.97;;;;;;;-1.83;57.44;99596.16;4454825;32;34470;-70
2022/03/06 03:27:55;;;;;;;7.20;3.45;;;;;;;-0.80;54.06;99589.25;4466653;32;33245;-70
2022/03/06 03:30:25;;;;;;;6.53;3.58;;;;;;;-2.39;57.87;99600.50;4470917;32;33815;-70
2022/03/06 03:32:54;;;;;;;7.32;3.47;;;;;;;-1.45;56.32;99596.87;4457772;32;34368;-70
2022/03/06 03:35:22;;;;;;;7.60;4.05;;;;;;;-1.42;56.39;99593.59;4440673;32;34645;-70
2022/03/06 03:37:51;;;;;;;9.63;4.45;;;;;;;-1.18;55.83;99598.84;4444604;32;33653;-70
2022/03/06 03:40:20;;;;;;;6.93;3.47;;;;;;;-1.84;56.99;99607.16;4454808;32;33862;-70
2022/03/06 03:42:49;;;;;;;5.50;3.47;;;;;;;-1.89;57.05;99598.44;4454881;32;34987;-70
2022/03/06 03:45:18;;;;;;;11.73;4.47;;;;;;;-1.16;55.89;99602.31;4455216;32;34656;-70
2022/03/06 03:47:47;;;;;;;6.50;3.42;;;;;;;-1.58;57.84;99603.16;4464960;32;33602;-70
2022/03/06 03:50:17;;;;;;;7.43;3.78;;;;;;;-1.82;57.93;99608.09;4456915;32;34005;-70
2022/03/06 03:52:45;;;;;;;8.43;3.58;;;;;;;-1.47;56.25;99605.31;4445384;32;34289;-70
2022/03/06 03:55:13;;;;;;;6.78;3.70;;;;;;;-1.15;55.69;99616.81;4454795;32;34607;-70
2022/03/06 03:57:41;;;;;;;6.28;4.05;;;;;;;-1.56;57.04;99608.34;4463992;32;34630;-70
2022/03/06 04:00:11;;;;;;;9.32;3.47;;;;;;;-1.24;56.66;99613.91;4470722;32;33880;-71
2022/03/06 04:02:40;;;;;;;9.32;4.55;;;;;;;-0.96;54.70;99619.31;4458111;32;34914;-71
2022/03/06 04:05:09;;;;;;;8.20;4.80;;;;;;;-1.91;59.04;99625.56;4454943;32;33533;-69
2022/03/06 04:07:41;;;;;;;7.15;3.72;;;;;;;-1.97;60.39;99620.22;4454557;32;33645;-69
2022/03/06 04:10:14;;;;;;;8.25;4.15;;;;;;;-0.90;57.09;99615.25;4463688;32;33937;-69
2022/03/06 04:12:44;;;;;;;7.20;3.28;;;;;;;-1.26;55.90;99623.19;4461514;32;34132;-69
2022/03/06 04:15:13;;;;;;;6.85;3.90;;;;;;;-1.54;57.98;99622.91;4454806;32;34383;-72
2022/03/06 04:17:41;;;;;;;7.93;3.92;;;;;;;-1.60;55.94;99626.91;4454041;32;33630;-73
2022/03/06 04:20:14;;;;;;;5.75;3.65;;;;;;;-1.55;56.35;99620.31;4454356;32;33835;-71
2022/03/06 04:22:56;;;;;;;14.73;4.77;;;;;;;-1.63;56.39;99626.75;4442163;32;35096;-71
2022/03/06 04:25:25;;;;;;;10.10;4.15;;;;;;;-2.07;58.84;99628.25;4454916;32;34519;-71
2022/03/06 04:27:56;;;;;;;12.10;5.43;;;;;;;-2.36;59.60;99626.16;4463131;32;34495;-70
2022/03/06 04:30:52;;;;;;;10.10;4.47;;;;;;;-2.37;61.66;99624.41;4470334;32;34750;-71
2022/03/06 04:33:45;;;;;;;7.53;3.05;;;;;;;-2.54;61.19;99621.09;4457103;32;34396;-71
2022/03/06 04:36:18;;;;;;;13.13;5.18;;;;;;;-2.81;61.57;99630.00;4441612;32;34540;-70
2022/03/06 04:38:47;;;;;;;7.43;3.65;;;;;;;-1.82;58.80;99631.06;4463812;32;34716;-71
2022/03/06 04:41:18;;;;;;;8.80;5.30;;;;;;;-1.85;59.05;99630.97;4447560;32;34784;-70
2022/03/06 04:43:47;;;;;;;8.90;4.45;;;;;;;-1.54;57.37;99637.34;4455134;32;35149;-69
2022/03/06 04:46:17;;;;;;;16.12;6.43;;;;;;;-1.75;58.80;99632.22;4454205;32;34627;-68
2022/03/06 04:48:46;;;;;;;10.63;5.35;;;;;;;-2.03;59.42;99635.25;4467697;32;33951;-71
2022/03/06 04:51:16;;;;;;;14.93;6.10;;;;;;;-2.03;60.42;99636.13;4470272;32;32993;-71
2022/03/06 04:53:45;;;;;;;13.05;5.10;;;;;;;-2.08;60.54;99626.50;4455491;32;35043;-68
2022/03/06 04:56:24;;;;;;;7.43;4.37;;;;;;;-1.18;57.95;99626.94;4454539;32;34519;-69
2022/03/06 04:58:54;;;;;;;6.05;4.15;;;;;;;-1.86;58.78;99638.53;4454175;32;33642;-70
2022/03/06 05:01:23;;;;;;;10.15;4.18;;;;;;;-2.31;59.92;99628.94;4454633;32;33957;-69
2022/03/06 05:03:54;;;;;;;10.75;4.25;;;;;;;-1.96;60.21;99638.16;4453735;32;35992;-71
2022/03/06 05:06:46;;;;;;;7.85;4.65;;;;;;;-1.73;59.93;99628.94;4432658;32;34446;-70
2022/03/06 05:09:16;;;;;;;6.70;4.00;;;;;;;-2.13;60.24;99628.88;4454457;32;33327;-70
2022/03/06 05:11:46;;;;;;;6.60;4.15;;;;;;;-1.23;58.12;99629.31;4440418;32;34039;-69
2022/03/06 05:14:15;;;;;;;12.52;3.85;;;;;;;-1.69;58.73;99631.59;4454636;32;35144;-70
2022/03/06 05:16:45;;;;;;;9.40;5.30;;;;;;;-1.33;58.61;99638.25;4440350;32;34341;-69
2022/03/06 05:19:13;;;;;;;6.87;4.95;;;;;;;-1.28;59.03;99632.47;4453701;32;33562;-68
2022/03/06 05:21:42;;;;;;;11.55;4.60;;;;;;;-0.33;56.30;99625.13;4453924;32;33915;-69
2022/03/06 05:24:12;;;;;;;6.03;3.12;;;;;;;-0.67;55.82;99631.50;4469963;32;35438;-68
2022/03/06 05:26:59;;;;;;;;;;;;;;;-0.26;54.38;99635.63;4468979;32;35247;-70
2022/03/06 05:29:28;;;;;;;9.82;4.15;;;;;;;-1.04;56.67;99641.16;4469983;32;34235;-69
2022/03/06 05:31:57;;;;;;;8.98;4.00;;;;;;;-1.81;59.33;99643.03;4467856;32;33983;-68
2022/03/06 05:34:39;;;;;;;5.45;3.78;;;;;;;-1.15;58.06;99639.81;4455997;32;34135;-68
2022/03/06 05:37:23;;;;;;;8.27;4.25;;;;;;;-1.20;56.77;99639.66;4453765;32;33441;-69
2022/03/06 05:39:56;;;;;;;7.78;4.05;;;;;;;-1.34;57.29;99640.78;4454419;32;33783;-68
2022/03/06 05:42:53;;;;;;;7.25;3.25;;;;;;;-1.56;58.87;99644.09;4459930;32;34125;-68
2022/03/06 05:45:50;;;;;;;8.02;4.57;;;;;;;-1.69;59.11;99646.91;4468278;32;35128;-68
2022/03/06 05:48:21;;;;;;;7.68;4.15;;;;;;;-1.57;59.56;99642.34;4452936;32;34487;-68
2022/03/06 05:50:51;;;;;;;11.27;4.57;;;;;;;-2.10;61.91;99645.19;4440472;32;33508;-69
2022/03/06 05:53:21;;;;;;;7.37;4.05;;;;;;;-0.85;59.20;99646.97;4452860;32;33985;-72
2022/03/06 05:55:50;;;;;;;8.10;3.60;;;;;;;-0.27;56.52;99646.66;4454237;32;35169;-70
2022/03/06 05:58:19;;;;;;;8.07;3.95;;;;;;;0.72;53.94;99635.69;4452549;32;34489;-70
2022/03/06 06:00:49;;;;;;;9.43;4.10;;;;;;;-0.22;55.57;99639.19;4454140;32;33768;-68
2022/03/06 06:03:20;;;;;;;8.93;4.68;;;;;;;1.24;52.29;99646.75;4462030;32;33812;-68
2022/03/06 06:05:51;;;;;;;117.65;41.40;;;;;;;2.43;49.49;99635.63;4469740;32;35120;-69
2022/03/06 06:08:25;;;;;;;32.42;14.43;;;;;;;2.79;48.82;99634.84;4468263;32;34487;-69
2022/03/06 06:10:56;;;;;;;11.12;6.97;;;;;;;4.88;43.57;99627.19;4463455;32;33101;-70
2022/03/06 06:13:27;;;;;;;18.52;11.85;;;;;;;4.50;44.46;99623.09;4462999;32;32897;-70
2022/03/06 06:15:57;;;;;;;8.95;4.20;;;;;;;5.25;42.94;99620.91;4469632;32;35058;-70
2022/03/06 06:18:27;;;;;;;6.40;4.30;;;;;;;4.46;44.51;99625.59;4453094;32;35298;-70
2022/03/06 06:20:55;;;;;;;11.32;6.47;;;;;;;4.03;46.13;99622.19;4453980;32;34473;-70
2022/03/06 06:23:23;;;;;;;10.13;4.00;;;;;;;3.96;46.10;99622.06;4432729;32;34055;-70
2022/03/06 06:25:51;;;;;;;7.78;4.15;;;;;;;4.59;45.63;99617.25;4453291;32;35066;-70
2022/03/06 06:28:20;;;;;;;8.10;3.78;;;;;;;2.82;49.15;99614.38;4464404;32;35261;-70
2022/03/06 06:30:49;;;;;;;7.95;3.62;;;;;;;3.17;48.72;99611.75;4468567;32;34418;-70
2022/03/06 06:33:18;;;;;;;8.18;3.70;;;;;;;2.94;48.40;99611.22;4453820;32;34081;-70
2022/03/06 06:35:46;;;;;;;6.30;3.78;;;;;;;2.50;49.22;99618.69;4453648;32;35974;-70
2022/03/06 06:38:15;;;;;;;6.22;3.58;;;;;;;2.70;50.12;99618.31;4453804;32;34500;-70
2022/03/06 06:40:46;;;;;;;7.25;4.07;;;;;;;3.24;48.25;99612.78;4460351;32;33689;-70
2022/03/06 06:43:18;;;;;;;7.10;2.85;;;;;;;4.10;45.92;99609.47;4466816;32;34051;-69
2022/03/06 06:45:50;;;;;;;6.05;4.15;;;;;;;4.80;44.66;99613.28;4440212;32;34963;-70
2022/03/06 06:48:28;;;;;;;9.90;3.75;;;;;;;5.69;42.26;99624.97;4453638;32;34444;-70
2022/03/06 06:51:01;;;;;;;10.63;4.07;;;;;;;6.30;41.84;99616.25;4453729;32;32711;-70
2022/03/06 06:53:40;;;;;;;8.85;4.70;;;;;;;7.11;39.32;99616.16;4453446;32;32802;-70
2022/03/06 06:56:10;;;;;;;5.20;3.45;;;;;;;7.48;38.01;99613.81;4453438;32;36011;-70
2022/03/06 06:58:39;;;;;;;9.63;5.87;;;;;;;6.97;38.68;99622.09;4448062;32;180064;-70
2022/03/06 07:01:07;;;;;;;9.43;3.97;;;;;;;6.45;39.95;99621.59;4453313;32;33672;-69
2022/03/06 07:03:38;;;;;;;6.82;3.65;;;;;;;6.43;40.38;99623.31;4453114;32;33878;-70
2022/03/06 07:06:11;;;;;;;9.25;4.80;;;;;;;6.28;40.86;99630.91;4453332;32;33934;-70
2022/03/06 07:08:41;;;;;;;8.85;5.85;;;;;;;5.50;41.34;99640.19;4453978;32;34479;-70
2022/03/06 07:11:18;;;;;;;8.50;5.18;;;;;;;6.33;40.61;99634.41;4442372;32;33909;-70
2022/03/06 07:13:48;;;;;;;5.70;3.67;;;;;;;5.83;40.83;99638.94;4455899;32;33799;-71
2022/03/06 07:16:32;;;;;;;8.43;4.53;;;;;;;5.93;40.57;99639.94;4441230;32;34850;-71
2022/03/06 07:19:05;;;;;;;10.27;5.85;;;;;;;5.91;40.67;99646.78;4455457;32;33436;-70
2022/03/06 07:21:48;;;;;;;5.53;3.53;;;;;;;6.30;40.05;99635.25;4470073;32;34557;-70
2022/03/06 07:24:52;;;;;;;6.87;2.78;;;;;;;6.51;39.66;99631.12;4471120;32;33757;-71
2022/03/06 07:27:43;;;;;;;4.72;2.83;;;;;;;6.31;39.29;99633.53;4470883;32;35826;-71
2022/03/06 07:30:35;;;;;;;4.55;3.20;;;;;;;7.01;39.04;99631.62;4470977;32;35333;-71
2022/03/06 07:33:13;;;;;;;9.32;3.10;;;;;;;6.87;39.19;99620.28;4455453;32;32541;-71
2022/03/06 07:35:42;;;;;;;5.93;2.67;;;;;;;7.39;37.40;99617.22;4455432;32;33912;-70
2022/03/06 07:38:19;;;;;;;4.97;2.67;;;;;;;7.84;37.06;99620.09;4455463;32;35176;-70
2022/03/06 07:40:58;;;;;;;6.90;3.30;;;;;;;8.07;36.91;99621.03;4455614;32;34539;-71
2022/03/06 07:43:35;;;;;;;5.05;2.40;;;;;;;7.56;37.54;99627.69;4455497;32;34381;-71
2022/03/06 07:46:12;;;;;;;5.60;2.72;;;;;;;8.02;36.92;99614.97;4455260;32;34654;-70
2022/03/06 07:48:45;;;;;;;5.85;3.40;;;;;;;8.38;35.34;99615.06;4455576;32;35974;-71
2022/03/06 07:51:14;;;;;;;8.00;3.87;;;;;;;8.47;35.43;99616.00;4455405;32;34273;-72
2022/03/06 07:53:50;;;;;;;5.90;3.78;;;;;;;7.00;37.68;99616.94;4455257;32;34636;-71
2022/03/06 07:56:32;;;;;;;5.30;2.60;;;;;;;7.50;37.00;99625.06;4455451;32;34704;-71
2022/03/06 07:59:06;;;;;;;6.70;3.42;;;;;;;7.59;35.43;99612.19;4455123;32;35925;-71
2022/03/06 08:01:40;;;;;;;5.93;3.47;;;;;;;7.48;35.79;99619.00;4455128;32;34399;-71
2022/03/06 08:04:10;;;;;;;5.10;3.15;;;;;;;8.19;35.26;99606.38;4454797;32;34541;-72
2022/03/06 08:06:54;;;;;;;7.72;3.28;;;;;;;7.15;37.43;99607.56;4455536;32;34946;-71
2022/03/06 08:09:25;;;;;;;7.28;3.12;;;;;;;8.33;34.75;99609.91;4455064;32;35193;-71
2022/03/06 08:11:54;;;;;;;4.03;2.60;;;;;;;8.62;34.16;99612.56;4455147;32;34501;-70
2022/03/06 08:14:23;;;;;;;5.62;3.20;;;;;;;8.71;33.08;99604.78;4455108;32;33703;-71
2022/03/06 08:16:51;;;;;;;6.32;3.70;;;;;;;8.95;33.62;99605.69;4455029;32;34792;-71
2022/03/06 08:19:21;;;;;;;6.05;3.05;;;;;;;8.66;33.67;99608.25;4454858;32;34341;-71
2022/03/06 08:21:49;;;;;;;4.62;2.60;;;;;;;8.28;34.16;99603.81;4468983;32;34517;-71
2022/03/06 08:24:23;;;;;;;7.72;3.78;;;;;;;9.00;33.23;99597.87;4470825;32;33581;-70
2022/03/06 08:26:51;;;;;;;8.38;3.78;;;;;;;8.69;34.29;99598.72;4470539;32;33568;-70
2022/03/06 08:29:19;;;;;;;7.80;3.08;;;;;;;9.33;32.54;99601.31;4470837;32;36044;-71
2022/03/06 08:31:56;;;;;;;8.77;4.10;;;;;;;9.47;32.25;99595.22;4470323;32;34560;-69
2022/03/06 08:34:35;;;;;;;6.28;3.05;;;;;;;9.53;31.32;99598.66;4470598;32;34643;-71
2022/03/06 08:37:07;;;;;;;9.80;4.75;;;;;;;9.78;30.64;99594.28;4470624;32;33525;-71
2022/03/06 08:39:47;;;;;;;;;;;;;;;10.30;30.93;99588.81;4470026;32;35921;-71
2022/03/06 08:42:23;;;;;;;6.62;2.53;;;;;;;10.26;30.44;99587.13;4470792;32;33533;-72
2022/03/06 08:44:55;;;;;;;4.97;2.92;;;;;;;9.70;30.19;99586.50;4470434;32;33500;-72
2022/03/06 08:47:25;;;;;;;4.18;2.30;;;;;;;10.16;29.81;99583.69;4470327;32;33944;-72
2022/03/06 08:49:56;;;;;;;4.15;2.17;;;;;;;10.63;28.91;99581.72;4470259;32;33914;-72
2022/03/06 08:52:30;;;;;;;5.25;2.60;;;;;;;10.81;27.70;99586.78;4470705;32;34629;-72
2022/03/06 08:55:04;;;;;;;4.05;2.08;;;;;;;10.88;28.17;99586.75;4470341;32;33606;-73
2022/03/06 08:57:38;;;;;;;6.07;3.30;;;;;;;10.47;29.00;99582.69;4469727;32;34769;-72
2022/03/06 09:00:19;;;;;;;7.07;3.28;;;;;;;11.07;28.98;99583.09;4470174;32;35887;-71
2022/03/06 09:02:49;;;;;;;7.57;3.35;;;;;;;11.46;27.55;99586.19;4457562;32;33715;-72
2022/03/06 09:05:23;;;;;;;7.93;3.53;;;;;;;11.66;27.14;99585.97;4454759;32;33084;-73
2022/03/06 09:08:00;;;;;;;6.65;3.42;;;;;;;11.48;28.49;99579.22;4454101;32;33748;-73
2022/03/06 09:10:39;;;;;;;9.90;3.53;;;;;;;11.31;28.53;99583.75;4454238;32;35949;-73
2022/03/06 09:13:09;;;;;;;5.70;3.45;;;;;;;11.12;28.45;99594.34;4454156;32;35253;-73
2022/03/06 09:15:41;;;;;;;7.22;3.67;;;;;;;11.66;27.95;99579.91;4454690;32;33704;-72
2022/03/06 09:18:11;;;;;;;8.43;3.85;;;;;;;12.03;26.69;99574.28;4466064;32;33571;-72
2022/03/06 09:20:40;;;;;;;10.68;5.95;;;;;;;11.57;26.88;99580.88;4470186;32;35071;-71
2022/03/06 09:23:09;;;;;;;10.90;6.53;;;;;;;11.93;27.66;99582.22;4466943;32;35373;-72
2022/03/06 09:25:39;;;;;;;9.30;4.85;;;;;;;12.65;26.47;99576.88;4454537;32;33849;-73
2022/03/06 09:28:07;;;;;;;8.43;4.62;;;;;;;12.53;26.82;99583.16;4453908;32;34081;-73
2022/03/06 09:30:37;;;;;;;10.73;5.12;;;;;;;12.48;26.65;99578.00;4454572;32;36012;-73
2022/03/06 09:33:09;;;;;;;10.30;3.90;;;;;;;11.73;28.48;99578.94;4456100;32;34624;-71
2022/03/06 09:35:40;;;;;;;11.55;4.85;;;;;;;12.45;26.42;99566.72;4454540;32;34435;-73
2022/03/06 09:38:10;;;;;;;9.50;4.72;;;;;;;13.46;25.43;99570.31;4440323;32;34852;-73
2022/03/06 09:40:42;;;;;;;7.43;5.15;;;;;;;13.75;24.68;99576.72;4454489;32;35090;-73
2022/03/06 09:43:18;;;;;;;7.32;4.05;;;;;;;14.12;24.46;99573.34;4455247;32;34591;-73
2022/03/06 09:45:49;;;;;;;13.50;9.15;;;;;;;13.69;24.19;99568.97;4454299;32;34634;-73
2022/03/06 09:48:19;;;;;;;17.52;10.30;;;;;;;13.01;27.20;99567.59;4453572;32;34783;-72
2022/03/06 09:50:48;;;;;;;9.80;5.00;;;;;;;13.50;26.24;99562.38;4454338;32;35994;-73
2022/03/06 09:53:17;;;;;;;9.73;4.93;;;;;;;14.17;25.09;99555.78;4453662;32;35373;-73
2022/03/06 09:55:46;;;;;;;8.20;4.10;;;;;;;14.65;23.73;99551.22;4453954;32;33019;-73
2022/03/06 09:58:15;;;;;;;7.45;4.18;;;;;;;14.97;24.06;99559.16;4455350;32;34934;-73
2022/03/06 10:00:44;;;;;;;12.60;5.35;;;;;;;14.64;24.06;99560.00;4469795;32;35168;-73
2022/03/06 10:03:23;;;;;;;8.80;5.53;;;;;;;14.55;24.66;99553.16;4453407;32;34657;-73
2022/03/06 10:05:52;;;;;;;9.25;4.65;;;;;;;12.86;25.68;99562.59;4454327;32;33746;-73
2022/03/06 10:08:28;;;;;;;10.38;4.97;;;;;;;13.88;24.26;99552.91;4453615;32;33839;-72
2022/03/06 10:11:10;;;;;;;12.77;4.87;;;;;;;14.79;23.50;99554.38;4454422;32;35133;-73
2022/03/06 10:13:41;;;;;;;10.23;5.40;;;;;;;15.67;21.90;99550.31;4457587;32;34090;-73
2022/03/06 10:16:13;;;;;;;11.18;5.87;;;;;;;13.44;25.20;99552.91;4469685;32;32933;-73
2022/03/06 10:18:47;;;;;;;11.32;4.80;;;;;;;13.99;25.02;99545.69;4466579;32;34884;-74
2022/03/06 10:21:32;;;;;;;12.48;7.37;;;;;;;14.08;24.80;99549.88;4469594;32;35221;-73
2022/03/06 10:24:08;;;;;;;9.18;5.25;;;;;;;14.23;25.24;99550.38;4462533;32;35395;-73
2022/03/06 10:26:37;;;;;;;9.57;5.32;;;;;;;14.03;25.17;99548.22;4454013;32;34487;-73
2022/03/06 10:29:11;;;;;;;10.25;5.30;;;;;;;15.96;22.63;99546.00;4459732;32;34111;-73
2022/03/06 10:31:58;;;;;;;10.60;6.03;;;;;;;14.93;23.52;99541.78;4465673;32;36021;-73
2022/03/06 10:34:38;;;;;;;9.68;4.90;;;;;;;15.03;24.56;99541.53;4461994;32;34436;-72
2022/03/06 10:37:07;;;;;;;15.18;8.60;;;;;;;15.46;22.57;99535.13;4469509;32;33541;-73
2022/03/06 10:39:43;;;;;;;11.35;4.97;;;;;;;15.57;23.29;99533.09;4454526;32;34771;-73
2022/03/06 10:42:11;;;;;;;;;;;;;;;17.13;20.92;99530.94;4469629;32;35118;-73
2022/03/06 10:44:46;;;;;;;8.35;5.12;;;;;;;16.14;21.50;99522.72;4469524;32;34675;-73
2022/03/06 10:47:18;;;;;;;10.05;4.32;;;;;;;17.45;21.00;99524.53;4451379;32;34570;-73
2022/03/06 10:50:02;;;;;;;9.75;4.97;;;;;;;15.84;22.15;99520.09;4465627;32;34649;-73
2022/03/06 10:52:40;;;;;;;9.18;4.40;;;;;;;15.95;21.56;99515.38;4471277;32;35884;-74
2022/03/06 10:55:10;;;;;;;8.70;4.80;;;;;;;17.15;21.09;99515.94;4443381;32;35303;-72
2022/03/06 10:57:40;;;;;;;7.72;3.97;;;;;;;17.18;21.02;99514.06;4455811;32;34516;-74
2022/03/06 11:00:10;;;;;;;8.05;4.32;;;;;;;17.32;20.16;99505.69;4467462;32;34801;-73
2022/03/06 11:02:44;;;;;;;9.48;5.65;;;;;;;18.51;19.83;99496.81;4455983;32;36091;-72
2022/03/06 11:05:15;;;;;;;8.85;4.93;;;;;;;17.21;21.75;99497.31;4454243;32;35114;-73
2022/03/06 11:07:47;;;;;;;8.43;4.47;;;;;;;17.49;21.05;99489.28;4471309;32;33732;-74
2022/03/06 11:10:16;;;;;;;9.52;4.75;;;;;;;17.36;20.10;99488.84;4443113;32;33998;-74
2022/03/06 11:12:46;;;;;;;9.30;4.50;;;;;;;16.28;22.07;99487.22;4455492;32;35127;-73
2022/03/06 11:15:16;;;;;;;11.25;6.53;;;;;;;16.52;21.61;99476.84;4453235;32;34492;-72
2022/03/06 11:17:45;;;;;;;7.07;4.25;;;;;;;16.26;22.38;99470.66;4455000;32;33723;-71
2022/03/06 11:20:13;;;;;;;9.80;4.97;;;;;;;17.56;20.27;99466.19;4453733;32;34670;-74
2022/03/06 11:22:53;;;;;;;10.82;5.10;;;;;;;15.01;23.14;99469.94;4470943;32;35050;-73
2022/03/06 11:25:26;;;;;;;9.45;5.15;;;;;;;15.38;22.30;99461.03;4456067;32;34458;-74
2022/03/06 11:28:13;;;;;;;8.70;4.82;;;;;;;16.03;21.24;99460.00;4457401;32;33702;-73
2022/03/06 11:30:41;;;;;;;;;;;;;;;17.58;20.11;99459.97;4471129;32;34839;-73
2022/03/06 11:33:13;;;;;;;8.75;4.87;;;;;;;18.32;20.56;99462.41;4467071;32;35459;-74
2022/03/06 11:35:44;;;;;;;9.70;5.18;;;;;;;17.84;20.51;99460.75;4455216;32;34711;-73
2022/03/06 11:38:14;;;;;;;9.57;5.28;;;;;;;16.87;20.76;99454.63;4455330;32;34491;-74
2022/03/06 11:40:48;;;;;;;9.90;5.35;;;;;;;17.29;20.66;99447.03;4470752;32;32298;-73
2022/03/06 11:43:31;;;;;;;9.88;5.20;;;;;;;15.83;22.82;99445.75;4470157;32;35337;-72
2022/03/06 11:46:16;;;;;;;9.75;5.25;;;;;;;15.64;22.05;99445.37;4455355;32;35301;-72
2022/03/06 11:48:45;;;;;;;9.18;5.15;;;;;;;15.25;24.18;99440.41;4454256;32;33464;-73
2022/03/06 11:51:22;;;;;;;11.85;5.85;;;;;;;14.52;25.29;99444.03;4455353;32;34102;-73
2022/03/06 11:54:06;;;;;;;9.43;5.75;;;;;;;14.89;22.20;99443.13;4454690;32;35282;-72
2022/03/06 11:56:35;;;;;;;8.77;4.70;;;;;;;14.88;22.60;99444.03;4450095;32;35193;-72
2022/03/06 11:59:29;;;;;;;10.70;6.22;;;;;;;13.21;24.53;99440.84;4465285;32;34480;-73